sensor_id;sensor_type;location;lat;lon;timestamp;P1;durP1;ratioP1;P2;durP2;ratioP2
58864;SDS011;45702;52.982;6.658;2022-09-12T00:00:41;19.05;;;13.88;;
58864;SDS011;45702;52.982;6.658;2022-09-12T00:03:07;20.45;;;14.40;;
58864;SDS011;45702;52.982;6.658;2022-09-12T00:05:33;20.70;;;14.50;;
58864;SDS011;45702;52.982;6.658;2022-09-12T00:08:08;18.98;;;13.07;;
58864;SDS011;45702;52.982;6.658;2022-09-12T00:10:39;20.13;;;13.95;;
58864;SDS011;45702;52.982;6.658;2022-09-12T00:13:06;17.92;;;12.98;;
58864;SDS011;45702;52.982;6.658;2022-09-12T00:15:36;21.17;;;14.68;;
58864;SDS011;45702;52.982;6.658;2022-09-12T00:18:07;20.10;;;14.35;;
58864;SDS011;45702;52.982;6.658;2022-09-12T00:20:34;26.67;;;17.55;;
58864;SDS011;45702;52.982;6.658;2022-09-12T00:23:00;24.02;;;15.73;;
58864;SDS011;45702;52.982;6.658;2022-09-12T00:25:25;27.42;;;17.00;;
58864;SDS011;45702;52.982;6.658;2022-09-12T00:27:51;24.73;;;17.52;;
58864;SDS011;45702;52.982;6.658;2022-09-12T00:30:17;25.38;;;16.52;;
58864;SDS011;45702;52.982;6.658;2022-09-12T00:32:43;25.83;;;16.20;;
58864;SDS011;45702;52.982;6.658;2022-09-12T00:35:08;24.27;;;16.60;;
58864;SDS011;45702;52.982;6.658;2022-09-12T00:37:34;27.88;;;17.70;;
58864;SDS011;45702;52.982;6.658;2022-09-12T00:40:00;23.45;;;16.63;;
58864;SDS011;45702;52.982;6.658;2022-09-12T00:42:26;23.75;;;16.95;;
58864;SDS011;45702;52.982;6.658;2022-09-12T00:44:51;24.05;;;16.33;;
58864;SDS011;45702;52.982;6.658;2022-09-12T00:52:15;27.50;;;17.20;;
58864;SDS011;45702;52.982;6.658;2022-09-12T00:54:46;28.30;;;17.48;;
58864;SDS011;45702;52.982;6.658;2022-09-12T00:57:15;23.05;;;16.45;;
58864;SDS011;45702;52.982;6.658;2022-09-12T00:59:46;26.48;;;17.15;;
58864;SDS011;45702;52.982;6.658;2022-09-12T01:02:18;28.58;;;19.45;;
58864;SDS011;45702;52.982;6.658;2022-09-12T01:04:44;28.95;;;20.05;;
58864;SDS011;45702;52.982;6.658;2022-09-12T01:07:11;24.67;;;17.38;;
58864;SDS011;45702;52.982;6.658;2022-09-12T01:09:39;32.63;;;18.98;;
58864;SDS011;45702;52.982;6.658;2022-09-12T01:12:06;33.30;;;17.38;;
58864;SDS011;45702;52.982;6.658;2022-09-12T01:14:33;25.75;;;17.05;;
58864;SDS011;45702;52.982;6.658;2022-09-12T01:16:59;32.03;;;17.38;;
58864;SDS011;45702;52.982;6.658;2022-09-12T01:36:33;27.77;;;18.42;;
58864;SDS011;45702;52.982;6.658;2022-09-12T01:42:06;24.90;;;17.45;;
58864;SDS011;45702;52.982;6.658;2022-09-12T01:44:54;23.38;;;17.30;;
58864;SDS011;45702;52.982;6.658;2022-09-12T01:50:02;26.27;;;16.80;;
58864;SDS011;45702;52.982;6.658;2022-09-12T01:52:35;22.42;;;15.27;;
58864;SDS011;45702;52.982;6.658;2022-09-12T01:55:15;26.48;;;16.45;;
58864;SDS011;45702;52.982;6.658;2022-09-12T01:57:47;26.10;;;17.63;;
58864;SDS011;45702;52.982;6.658;2022-09-12T02:00:27;27.27;;;17.50;;
58864;SDS011;45702;52.982;6.658;2022-09-12T02:02:56;26.73;;;18.30;;
58864;SDS011;45702;52.982;6.658;2022-09-12T02:05:32;31.10;;;19.15;;
58864;SDS011;45702;52.982;6.658;2022-09-12T02:08:09;40.38;;;22.90;;
58864;SDS011;45702;52.982;6.658;2022-09-12T02:10:59;35.58;;;21.58;;
58864;SDS011;45702;52.982;6.658;2022-09-12T02:13:43;32.78;;;20.13;;
58864;SDS011;45702;52.982;6.658;2022-09-12T02:16:21;33.60;;;20.80;;
58864;SDS011;45702;52.982;6.658;2022-09-12T02:18:54;36.75;;;21.13;;
58864;SDS011;45702;52.982;6.658;2022-09-12T02:21:23;33.08;;;20.42;;
58864;SDS011;45702;52.982;6.658;2022-09-12T02:23:53;38.45;;;21.70;;
58864;SDS011;45702;52.982;6.658;2022-09-12T02:26:33;42.05;;;22.92;;
58864;SDS011;45702;52.982;6.658;2022-09-12T02:29:05;35.92;;;22.60;;
58864;SDS011;45702;52.982;6.658;2022-09-12T02:39:33;44.65;;;25.13;;
58864;SDS011;45702;52.982;6.658;2022-09-12T02:41:59;49.20;;;26.58;;
58864;SDS011;45702;52.982;6.658;2022-09-12T02:44:27;66.78;;;31.83;;
58864;SDS011;45702;52.982;6.658;2022-09-12T02:46:56;56.50;;;30.30;;
58864;SDS011;45702;52.982;6.658;2022-09-12T02:49:26;66.60;;;34.80;;
58864;SDS011;45702;52.982;6.658;2022-09-12T02:51:52;66.38;;;33.53;;
58864;SDS011;45702;52.982;6.658;2022-09-12T02:54:17;75.95;;;36.65;;
58864;SDS011;45702;52.982;6.658;2022-09-12T02:56:45;73.68;;;36.20;;
58864;SDS011;45702;52.982;6.658;2022-09-12T02:59:12;64.28;;;33.70;;
58864;SDS011;45702;52.982;6.658;2022-09-12T03:28:29;75.60;;;36.00;;
58864;SDS011;45702;52.982;6.658;2022-09-12T03:30:57;63.83;;;33.67;;
58864;SDS011;45702;52.982;6.658;2022-09-12T03:33:24;62.05;;;32.58;;
58864;SDS011;45702;52.982;6.658;2022-09-12T03:35:50;75.10;;;34.15;;
58864;SDS011;45702;52.982;6.658;2022-09-12T03:38:17;67.18;;;34.20;;
58864;SDS011;45702;52.982;6.658;2022-09-12T03:40:43;84.40;;;39.22;;
58864;SDS011;45702;52.982;6.658;2022-09-12T03:43:10;80.60;;;36.03;;
58864;SDS011;45702;52.982;6.658;2022-09-12T03:45:37;84.47;;;37.22;;
58864;SDS011;45702;52.982;6.658;2022-09-12T03:48:03;87.10;;;38.40;;
58864;SDS011;45702;52.982;6.658;2022-09-12T03:50:30;97.78;;;41.10;;
58864;SDS011;45702;52.982;6.658;2022-09-12T03:52:57;77.97;;;36.72;;
58864;SDS011;45702;52.982;6.658;2022-09-12T03:55:24;79.03;;;37.38;;
58864;SDS011;45702;52.982;6.658;2022-09-12T03:57:54;86.13;;;38.92;;
58864;SDS011;45702;52.982;6.658;2022-09-12T04:00:20;90.75;;;39.58;;
58864;SDS011;45702;52.982;6.658;2022-09-12T04:02:46;92.60;;;38.92;;
58864;SDS011;45702;52.982;6.658;2022-09-12T04:05:12;76.28;;;36.85;;
58864;SDS011;45702;52.982;6.658;2022-09-12T04:07:38;74.78;;;35.63;;
58864;SDS011;45702;52.982;6.658;2022-09-12T04:10:04;81.35;;;36.90;;
58864;SDS011;45702;52.982;6.658;2022-09-12T04:12:30;90.97;;;39.25;;
58864;SDS011;45702;52.982;6.658;2022-09-12T04:14:55;92.22;;;39.97;;
58864;SDS011;45702;52.982;6.658;2022-09-12T04:17:21;88.53;;;39.97;;
58864;SDS011;45702;52.982;6.658;2022-09-12T04:19:47;82.55;;;37.42;;
58864;SDS011;45702;52.982;6.658;2022-09-12T04:22:12;88.30;;;37.83;;
58864;SDS011;45702;52.982;6.658;2022-09-12T04:24:38;92.70;;;38.25;;
58864;SDS011;45702;52.982;6.658;2022-09-12T04:27:04;87.93;;;38.42;;
58864;SDS011;45702;52.982;6.658;2022-09-12T04:29:29;103.78;;;40.67;;
58864;SDS011;45702;52.982;6.658;2022-09-12T04:31:55;82.65;;;37.92;;
58864;SDS011;45702;52.982;6.658;2022-09-12T04:34:21;91.72;;;37.72;;
58864;SDS011;45702;52.982;6.658;2022-09-12T04:36:47;78.50;;;36.38;;
58864;SDS011;45702;52.982;6.658;2022-09-12T04:39:13;76.97;;;36.28;;
58864;SDS011;45702;52.982;6.658;2022-09-12T04:41:39;81.13;;;36.35;;
58864;SDS011;45702;52.982;6.658;2022-09-12T04:44:11;84.25;;;37.28;;
58864;SDS011;45702;52.982;6.658;2022-09-12T04:46:39;78.90;;;37.00;;
58864;SDS011;45702;52.982;6.658;2022-09-12T04:49:07;89.32;;;38.13;;
58864;SDS011;45702;52.982;6.658;2022-09-12T04:51:34;92.93;;;36.88;;
58864;SDS011;45702;52.982;6.658;2022-09-12T04:54:09;87.57;;;38.57;;
58864;SDS011;45702;52.982;6.658;2022-09-12T04:56:37;88.13;;;37.63;;
58864;SDS011;45702;52.982;6.658;2022-09-12T04:59:04;80.03;;;36.67;;
58864;SDS011;45702;52.982;6.658;2022-09-12T05:01:31;89.95;;;37.83;;
58864;SDS011;45702;52.982;6.658;2022-09-12T05:03:57;98.97;;;39.65;;
58864;SDS011;45702;52.982;6.658;2022-09-12T05:06:27;91.13;;;38.25;;
58864;SDS011;45702;52.982;6.658;2022-09-12T05:08:55;87.93;;;37.95;;
58864;SDS011;45702;52.982;6.658;2022-09-12T05:11:23;89.55;;;36.38;;
58864;SDS011;45702;52.982;6.658;2022-09-12T05:13:51;94.95;;;38.40;;
58864;SDS011;45702;52.982;6.658;2022-09-12T05:16:18;100.25;;;40.15;;
58864;SDS011;45702;52.982;6.658;2022-09-12T05:18:45;100.72;;;40.20;;
58864;SDS011;45702;52.982;6.658;2022-09-12T05:21:12;95.40;;;38.20;;
58864;SDS011;45702;52.982;6.658;2022-09-12T05:23:42;101.70;;;41.75;;
58864;SDS011;45702;52.982;6.658;2022-09-12T05:26:12;115.07;;;44.25;;
58864;SDS011;45702;52.982;6.658;2022-09-12T05:28:39;112.78;;;45.10;;
58864;SDS011;45702;52.982;6.658;2022-09-12T05:31:06;113.32;;;44.92;;
58864;SDS011;45702;52.982;6.658;2022-09-12T05:33:35;119.70;;;45.45;;
58864;SDS011;45702;52.982;6.658;2022-09-12T05:36:03;111.72;;;44.13;;
58864;SDS011;45702;52.982;6.658;2022-09-12T05:38:30;119.75;;;46.47;;
58864;SDS011;45702;52.982;6.658;2022-09-12T05:41:12;118.18;;;46.13;;
58864;SDS011;45702;52.982;6.658;2022-09-12T05:43:39;110.63;;;45.38;;
58864;SDS011;45702;52.982;6.658;2022-09-12T05:46:08;119.03;;;47.40;;
58864;SDS011;45702;52.982;6.658;2022-09-12T05:48:37;122.53;;;46.33;;
58864;SDS011;45702;52.982;6.658;2022-09-12T05:51:05;107.28;;;44.75;;
58864;SDS011;45702;52.982;6.658;2022-09-12T05:53:33;120.68;;;48.08;;
58864;SDS011;45702;52.982;6.658;2022-09-12T05:56:04;109.88;;;45.63;;
58864;SDS011;45702;52.982;6.658;2022-09-12T05:58:38;120.40;;;47.30;;
58864;SDS011;45702;52.982;6.658;2022-09-12T06:01:07;120.50;;;46.33;;
58864;SDS011;45702;52.982;6.658;2022-09-12T06:03:41;116.68;;;46.22;;
58864;SDS011;45702;52.982;6.658;2022-09-12T06:06:18;111.05;;;46.05;;
58864;SDS011;45702;52.982;6.658;2022-09-12T06:08:47;115.68;;;47.08;;
58864;SDS011;45702;52.982;6.658;2022-09-12T06:11:16;119.10;;;47.65;;
58864;SDS011;45702;52.982;6.658;2022-09-12T06:13:43;121.68;;;47.53;;
58864;SDS011;45702;52.982;6.658;2022-09-12T06:16:13;121.43;;;47.92;;
58864;SDS011;45702;52.982;6.658;2022-09-12T06:18:47;132.13;;;48.05;;
58864;SDS011;45702;52.982;6.658;2022-09-12T06:21:14;121.32;;;46.65;;
58864;SDS011;45702;52.982;6.658;2022-09-12T06:23:40;121.53;;;47.63;;
58864;SDS011;45702;52.982;6.658;2022-09-12T06:26:06;123.28;;;48.30;;
58864;SDS011;45702;52.982;6.658;2022-09-12T06:28:34;116.30;;;46.97;;
58864;SDS011;45702;52.982;6.658;2022-09-12T06:31:02;120.87;;;45.87;;
58864;SDS011;45702;52.982;6.658;2022-09-12T06:33:30;127.70;;;47.63;;
58864;SDS011;45702;52.982;6.658;2022-09-12T06:36:04;123.68;;;47.95;;
58864;SDS011;45702;52.982;6.658;2022-09-12T06:38:32;115.72;;;46.40;;
58864;SDS011;45702;52.982;6.658;2022-09-12T06:40:58;116.90;;;47.83;;
58864;SDS011;45702;52.982;6.658;2022-09-12T06:43:24;112.03;;;45.83;;
58864;SDS011;45702;52.982;6.658;2022-09-12T06:45:51;116.38;;;45.60;;
58864;SDS011;45702;52.982;6.658;2022-09-12T06:48:17;115.90;;;44.95;;
58864;SDS011;45702;52.982;6.658;2022-09-12T06:50:42;119.60;;;46.55;;
58864;SDS011;45702;52.982;6.658;2022-09-12T06:53:19;111.97;;;45.47;;
58864;SDS011;45702;52.982;6.658;2022-09-12T06:55:45;115.20;;;44.53;;
58864;SDS011;45702;52.982;6.658;2022-09-12T06:58:12;113.55;;;45.95;;
58864;SDS011;45702;52.982;6.658;2022-09-12T07:00:37;122.28;;;46.25;;
58864;SDS011;45702;52.982;6.658;2022-09-12T07:03:04;108.28;;;44.17;;
58864;SDS011;45702;52.982;6.658;2022-09-12T07:05:29;109.43;;;45.17;;
58864;SDS011;45702;52.982;6.658;2022-09-12T07:07:57;111.95;;;44.00;;
58864;SDS011;45702;52.982;6.658;2022-09-12T07:10:23;105.93;;;43.85;;
58864;SDS011;45702;52.982;6.658;2022-09-12T07:12:48;106.15;;;44.30;;
58864;SDS011;45702;52.982;6.658;2022-09-12T07:15:14;107.47;;;44.03;;
58864;SDS011;45702;52.982;6.658;2022-09-12T07:17:40;106.18;;;43.92;;
58864;SDS011;45702;52.982;6.658;2022-09-12T07:20:06;106.15;;;43.33;;
58864;SDS011;45702;52.982;6.658;2022-09-12T07:22:32;106.20;;;42.88;;
58864;SDS011;45702;52.982;6.658;2022-09-12T07:24:57;101.82;;;42.45;;
58864;SDS011;45702;52.982;6.658;2022-09-12T07:27:23;101.93;;;41.60;;
58864;SDS011;45702;52.982;6.658;2022-09-12T07:29:49;101.82;;;43.42;;
58864;SDS011;45702;52.982;6.658;2022-09-12T07:32:14;103.53;;;43.72;;
58864;SDS011;45702;52.982;6.658;2022-09-12T07:34:40;98.78;;;42.38;;
58864;SDS011;45702;52.982;6.658;2022-09-12T07:37:05;97.88;;;41.17;;
58864;SDS011;45702;52.982;6.658;2022-09-12T07:39:31;96.60;;;40.90;;
58864;SDS011;45702;52.982;6.658;2022-09-12T07:41:57;98.00;;;41.90;;
58864;SDS011;45702;52.982;6.658;2022-09-12T07:44:24;86.43;;;37.15;;
58864;SDS011;45702;52.982;6.658;2022-09-12T07:46:51;93.32;;;41.47;;
58864;SDS011;45702;52.982;6.658;2022-09-12T07:49:16;89.15;;;39.65;;
58864;SDS011;45702;52.982;6.658;2022-09-12T07:51:42;87.40;;;38.35;;
58864;SDS011;45702;52.982;6.658;2022-09-12T07:54:08;84.40;;;37.25;;
58864;SDS011;45702;52.982;6.658;2022-09-12T07:56:34;81.38;;;36.53;;
58864;SDS011;45702;52.982;6.658;2022-09-12T07:58:59;82.20;;;36.83;;
58864;SDS011;45702;52.982;6.658;2022-09-12T08:01:25;83.38;;;36.67;;
58864;SDS011;45702;52.982;6.658;2022-09-12T08:03:58;75.50;;;35.25;;
58864;SDS011;45702;52.982;6.658;2022-09-12T08:06:25;78.35;;;33.85;;
58864;SDS011;45702;52.982;6.658;2022-09-12T08:08:53;74.75;;;33.42;;
58864;SDS011;45702;52.982;6.658;2022-09-12T08:11:20;77.20;;;34.13;;
58864;SDS011;45702;52.982;6.658;2022-09-12T08:13:47;74.78;;;34.45;;
58864;SDS011;45702;52.982;6.658;2022-09-12T08:16:14;71.82;;;33.75;;
58864;SDS011;45702;52.982;6.658;2022-09-12T08:18:43;76.28;;;33.40;;
58864;SDS011;45702;52.982;6.658;2022-09-12T08:21:13;72.65;;;32.45;;
58864;SDS011;45702;52.982;6.658;2022-09-12T08:23:44;70.35;;;31.98;;
58864;SDS011;45702;52.982;6.658;2022-09-12T08:26:10;66.82;;;31.77;;
58864;SDS011;45702;52.982;6.658;2022-09-12T08:28:37;68.53;;;32.63;;
58864;SDS011;45702;52.982;6.658;2022-09-12T08:31:07;66.38;;;31.00;;
58864;SDS011;45702;52.982;6.658;2022-09-12T08:33:35;73.57;;;32.63;;
58864;SDS011;45702;52.982;6.658;2022-09-12T08:36:04;69.13;;;31.75;;
58864;SDS011;45702;52.982;6.658;2022-09-12T08:38:33;67.15;;;30.95;;
58864;SDS011;45702;52.982;6.658;2022-09-12T08:41:02;66.78;;;30.45;;
58864;SDS011;45702;52.982;6.658;2022-09-12T08:46:01;65.72;;;30.42;;
58864;SDS011;45702;52.982;6.658;2022-09-12T08:48:35;66.22;;;30.60;;
58864;SDS011;45702;52.982;6.658;2022-09-12T08:51:02;61.35;;;30.50;;
58864;SDS011;45702;52.982;6.658;2022-09-12T08:53:29;63.85;;;30.55;;
58864;SDS011;45702;52.982;6.658;2022-09-12T08:55:59;62.72;;;30.13;;
58864;SDS011;45702;52.982;6.658;2022-09-12T08:58:28;61.05;;;29.77;;
58864;SDS011;45702;52.982;6.658;2022-09-12T09:01:42;62.17;;;30.00;;
58864;SDS011;45702;52.982;6.658;2022-09-12T09:12:04;71.97;;;31.77;;
58864;SDS011;45702;52.982;6.658;2022-09-12T09:17:42;73.22;;;33.35;;
58864;SDS011;45702;52.982;6.658;2022-09-12T09:31:13;76.70;;;34.28;;
58864;SDS011;45702;52.982;6.658;2022-09-12T09:33:41;77.38;;;36.65;;
58864;SDS011;45702;52.982;6.658;2022-09-12T09:36:33;86.25;;;37.15;;
58864;SDS011;45702;52.982;6.658;2022-09-12T09:39:23;84.13;;;37.08;;
58864;SDS011;45702;52.982;6.658;2022-09-12T09:44:19;81.20;;;37.38;;
58864;SDS011;45702;52.982;6.658;2022-09-12T09:46:45;79.43;;;35.42;;
58864;SDS011;45702;52.982;6.658;2022-09-12T09:49:14;81.82;;;36.80;;
58864;SDS011;45702;52.982;6.658;2022-09-12T09:51:41;92.10;;;37.42;;
58864;SDS011;45702;52.982;6.658;2022-09-12T09:56:39;83.85;;;36.22;;
58864;SDS011;45702;52.982;6.658;2022-09-12T09:59:16;82.95;;;35.60;;
58864;SDS011;45702;52.982;6.658;2022-09-12T10:04:20;84.95;;;36.63;;
58864;SDS011;45702;52.982;6.658;2022-09-12T10:06:51;78.32;;;34.42;;
58864;SDS011;45702;52.982;6.658;2022-09-12T10:09:21;80.25;;;34.00;;
58864;SDS011;45702;52.982;6.658;2022-09-12T10:11:58;79.80;;;33.55;;
58864;SDS011;45702;52.982;6.658;2022-09-12T10:14:31;74.93;;;33.58;;
58864;SDS011;45702;52.982;6.658;2022-09-12T10:22:58;74.10;;;32.38;;
58864;SDS011;45702;52.982;6.658;2022-09-12T10:25:27;68.43;;;29.95;;
58864;SDS011;45702;52.982;6.658;2022-09-12T10:27:55;74.38;;;32.30;;
58864;SDS011;45702;52.982;6.658;2022-09-12T10:30:23;73.63;;;31.95;;
58864;SDS011;45702;52.982;6.658;2022-09-12T10:32:52;66.70;;;30.98;;
58864;SDS011;45702;52.982;6.658;2022-09-12T10:35:23;63.08;;;29.75;;
58864;SDS011;45702;52.982;6.658;2022-09-12T10:38:05;63.08;;;28.73;;
58864;SDS011;45702;52.982;6.658;2022-09-12T10:40:40;64.35;;;28.73;;
58864;SDS011;45702;52.982;6.658;2022-09-12T10:43:18;59.10;;;26.85;;
58864;SDS011;45702;52.982;6.658;2022-09-12T10:46:19;52.70;;;25.10;;
58864;SDS011;45702;52.982;6.658;2022-09-12T10:49:11;60.53;;;28.27;;
58864;SDS011;45702;52.982;6.658;2022-09-12T10:51:37;50.90;;;24.70;;
58864;SDS011;45702;52.982;6.658;2022-09-12T10:54:04;46.42;;;22.63;;
58864;SDS011;45702;52.982;6.658;2022-09-12T10:56:35;41.70;;;22.05;;
58864;SDS011;45702;52.982;6.658;2022-09-12T11:02:10;44.10;;;20.45;;
58864;SDS011;45702;52.982;6.658;2022-09-12T11:08:03;40.97;;;20.85;;
58864;SDS011;45702;52.982;6.658;2022-09-12T11:21:52;39.25;;;20.02;;
58864;SDS011;45702;52.982;6.658;2022-09-12T11:29:58;40.65;;;21.40;;
58864;SDS011;45702;52.982;6.658;2022-09-12T11:35:18;35.20;;;18.80;;
58864;SDS011;45702;52.982;6.658;2022-09-12T11:45:55;28.67;;;15.68;;
58864;SDS011;45702;52.982;6.658;2022-09-12T11:51:27;29.52;;;15.57;;
58864;SDS011;45702;52.982;6.658;2022-09-12T12:02:26;34.50;;;18.13;;
58864;SDS011;45702;52.982;6.658;2022-09-12T12:07:47;37.80;;;19.10;;
58864;SDS011;45702;52.982;6.658;2022-09-12T12:10:24;38.95;;;18.15;;
58864;SDS011;45702;52.982;6.658;2022-09-12T12:12:51;35.33;;;17.83;;
58864;SDS011;45702;52.982;6.658;2022-09-12T12:15:19;34.38;;;19.25;;
58864;SDS011;45702;52.982;6.658;2022-09-12T12:20:53;26.95;;;13.32;;
58864;SDS011;45702;52.982;6.658;2022-09-12T12:23:28;29.48;;;15.55;;
58864;SDS011;45702;52.982;6.658;2022-09-12T12:25:57;25.65;;;14.75;;
58864;SDS011;45702;52.982;6.658;2022-09-12T12:40:52;31.42;;;17.17;;
58864;SDS011;45702;52.982;6.658;2022-09-12T12:43:28;31.50;;;17.00;;
58864;SDS011;45702;52.982;6.658;2022-09-12T12:46:04;28.58;;;15.13;;
58864;SDS011;45702;52.982;6.658;2022-09-12T12:48:32;25.88;;;14.20;;
58864;SDS011;45702;52.982;6.658;2022-09-12T12:54:00;28.10;;;15.00;;
58864;SDS011;45702;52.982;6.658;2022-09-12T12:56:29;31.73;;;18.05;;
58864;SDS011;45702;52.982;6.658;2022-09-12T12:59:05;32.67;;;16.75;;
58864;SDS011;45702;52.982;6.658;2022-09-12T13:01:51;26.92;;;14.40;;
58864;SDS011;45702;52.982;6.658;2022-09-12T13:04:21;23.13;;;12.40;;
58864;SDS011;45702;52.982;6.658;2022-09-12T13:06:56;20.63;;;11.85;;
58864;SDS011;45702;52.982;6.658;2022-09-12T13:12:30;26.83;;;13.45;;
58864;SDS011;45702;52.982;6.658;2022-09-12T13:14:59;22.38;;;12.77;;
58864;SDS011;45702;52.982;6.658;2022-09-12T13:17:32;25.70;;;13.93;;
58864;SDS011;45702;52.982;6.658;2022-09-12T13:20:05;22.48;;;12.50;;
58864;SDS011;45702;52.982;6.658;2022-09-12T13:22:47;22.20;;;12.30;;
58864;SDS011;45702;52.982;6.658;2022-09-12T13:25:18;20.70;;;12.10;;
58864;SDS011;45702;52.982;6.658;2022-09-12T13:28:23;21.02;;;11.30;;
58864;SDS011;45702;52.982;6.658;2022-09-12T13:30:53;21.05;;;11.82;;
58864;SDS011;45702;52.982;6.658;2022-09-12T13:41:51;12.32;;;7.18;;
58864;SDS011;45702;52.982;6.658;2022-09-12T13:44:20;11.30;;;7.40;;
58864;SDS011;45702;52.982;6.658;2022-09-12T13:46:47;13.30;;;8.57;;
58864;SDS011;45702;52.982;6.658;2022-09-12T13:49:20;15.38;;;8.20;;
58864;SDS011;45702;52.982;6.658;2022-09-12T13:52:03;13.65;;;7.70;;
58864;SDS011;45702;52.982;6.658;2022-09-12T13:54:32;14.75;;;8.10;;
58864;SDS011;45702;52.982;6.658;2022-09-12T13:57:02;12.23;;;6.85;;
58864;SDS011;45702;52.982;6.658;2022-09-12T13:59:36;12.98;;;8.02;;
58864;SDS011;45702;52.982;6.658;2022-09-12T14:04:49;12.30;;;7.70;;
58864;SDS011;45702;52.982;6.658;2022-09-12T14:07:33;15.30;;;9.70;;
58864;SDS011;45702;52.982;6.658;2022-09-12T14:10:04;14.32;;;8.88;;
58864;SDS011;45702;52.982;6.658;2022-09-12T14:12:35;13.35;;;8.13;;
58864;SDS011;45702;52.982;6.658;2022-09-12T14:15:15;13.57;;;8.32;;
58864;SDS011;45702;52.982;6.658;2022-09-12T14:17:48;13.52;;;8.70;;
58864;SDS011;45702;52.982;6.658;2022-09-12T14:20:18;14.02;;;8.60;;
58864;SDS011;45702;52.982;6.658;2022-09-12T14:22:45;17.65;;;10.02;;
58864;SDS011;45702;52.982;6.658;2022-09-12T14:25:54;13.68;;;8.45;;
58864;SDS011;45702;52.982;6.658;2022-09-12T14:28:03;13.35;;;8.65;;
58864;SDS011;45702;52.982;6.658;2022-09-12T14:30:31;16.20;;;9.45;;
58864;SDS011;45702;52.982;6.658;2022-09-12T14:35:37;17.42;;;9.30;;
58864;SDS011;45702;52.982;6.658;2022-09-12T14:38:51;17.30;;;9.65;;
58864;SDS011;45702;52.982;6.658;2022-09-12T14:41:28;15.73;;;9.38;;
58864;SDS011;45702;52.982;6.658;2022-09-12T14:43:58;13.18;;;8.48;;
58864;SDS011;45702;52.982;6.658;2022-09-12T14:46:29;11.15;;;7.53;;
58864;SDS011;45702;52.982;6.658;2022-09-12T14:51:35;11.55;;;7.93;;
58864;SDS011;45702;52.982;6.658;2022-09-12T14:54:03;11.25;;;7.65;;
58864;SDS011;45702;52.982;6.658;2022-09-12T14:56:36;12.32;;;8.23;;
58864;SDS011;45702;52.982;6.658;2022-09-12T15:02:19;12.77;;;7.50;;
58864;SDS011;45702;52.982;6.658;2022-09-12T15:10:13;10.25;;;7.40;;
58864;SDS011;45702;52.982;6.658;2022-09-12T15:15:34;11.10;;;6.97;;
58864;SDS011;45702;52.982;6.658;2022-09-12T15:18:01;9.38;;;6.53;;
58864;SDS011;45702;52.982;6.658;2022-09-12T15:20:28;8.45;;;5.28;;
58864;SDS011;45702;52.982;6.658;2022-09-12T15:22:54;6.43;;;5.00;;
58864;SDS011;45702;52.982;6.658;2022-09-12T15:25:20;8.73;;;5.13;;
58864;SDS011;45702;52.982;6.658;2022-09-12T15:27:46;7.65;;;4.65;;
58864;SDS011;45702;52.982;6.658;2022-09-12T15:30:13;8.15;;;5.43;;
58864;SDS011;45702;52.982;6.658;2022-09-12T15:32:39;5.93;;;5.00;;
58864;SDS011;45702;52.982;6.658;2022-09-12T15:37:46;7.30;;;5.30;;
58864;SDS011;45702;52.982;6.658;2022-09-12T15:40:12;12.35;;;5.15;;
58864;SDS011;45702;52.982;6.658;2022-09-12T15:42:37;6.70;;;4.88;;
58864;SDS011;45702;52.982;6.658;2022-09-12T15:45:14;7.78;;;5.15;;
58864;SDS011;45702;52.982;6.658;2022-09-12T15:47:43;6.18;;;4.60;;
58864;SDS011;45702;52.982;6.658;2022-09-12T15:50:08;7.43;;;5.00;;
58864;SDS011;45702;52.982;6.658;2022-09-12T15:52:35;5.70;;;4.50;;
58864;SDS011;45702;52.982;6.658;2022-09-12T15:55:02;6.43;;;4.60;;
58864;SDS011;45702;52.982;6.658;2022-09-12T15:57:28;6.32;;;4.38;;
58864;SDS011;45702;52.982;6.658;2022-09-12T15:59:54;9.23;;;4.60;;
58864;SDS011;45702;52.982;6.658;2022-09-12T16:02:19;6.53;;;4.40;;
58864;SDS011;45702;52.982;6.658;2022-09-12T16:04:45;5.85;;;4.50;;
58864;SDS011;45702;52.982;6.658;2022-09-12T16:07:12;6.95;;;4.90;;
58864;SDS011;45702;52.982;6.658;2022-09-12T16:09:41;6.25;;;4.55;;
58864;SDS011;45702;52.982;6.658;2022-09-12T16:12:08;6.38;;;4.32;;
58864;SDS011;45702;52.982;6.658;2022-09-12T16:14:36;5.88;;;4.43;;
58864;SDS011;45702;52.982;6.658;2022-09-12T16:17:02;7.93;;;4.43;;
58864;SDS011;45702;52.982;6.658;2022-09-12T16:19:27;6.00;;;4.80;;
58864;SDS011;45702;52.982;6.658;2022-09-12T16:21:53;7.75;;;4.68;;
58864;SDS011;45702;52.982;6.658;2022-09-12T16:24:19;6.78;;;5.25;;
58864;SDS011;45702;52.982;6.658;2022-09-12T16:26:44;6.80;;;4.63;;
58864;SDS011;45702;52.982;6.658;2022-09-12T16:29:11;8.50;;;5.05;;
58864;SDS011;45702;52.982;6.658;2022-09-12T16:31:37;7.55;;;5.20;;
58864;SDS011;45702;52.982;6.658;2022-09-12T16:34:04;8.13;;;5.30;;
58864;SDS011;45702;52.982;6.658;2022-09-12T16:36:30;6.47;;;4.40;;
58864;SDS011;45702;52.982;6.658;2022-09-12T16:38:55;7.22;;;4.93;;
58864;SDS011;45702;52.982;6.658;2022-09-12T16:41:21;7.85;;;4.68;;
58864;SDS011;45702;52.982;6.658;2022-09-12T16:43:49;7.60;;;4.70;;
58864;SDS011;45702;52.982;6.658;2022-09-12T16:46:16;7.25;;;5.07;;
58864;SDS011;45702;52.982;6.658;2022-09-12T16:48:47;5.75;;;4.50;;
58864;SDS011;45702;52.982;6.658;2022-09-12T16:51:15;6.28;;;4.85;;
58864;SDS011;45702;52.982;6.658;2022-09-12T16:53:44;7.38;;;5.28;;
58864;SDS011;45702;52.982;6.658;2022-09-12T16:56:10;10.52;;;5.57;;
58864;SDS011;45702;52.982;6.658;2022-09-12T16:58:38;7.22;;;5.45;;
58864;SDS011;45702;52.982;6.658;2022-09-12T17:01:06;7.65;;;5.50;;
58864;SDS011;45702;52.982;6.658;2022-09-12T17:03:53;7.72;;;5.80;;
58864;SDS011;45702;52.982;6.658;2022-09-12T17:06:20;7.65;;;5.60;;
58864;SDS011;45702;52.982;6.658;2022-09-12T17:08:48;8.35;;;5.68;;
58864;SDS011;45702;52.982;6.658;2022-09-12T17:11:17;6.45;;;5.32;;
58864;SDS011;45702;52.982;6.658;2022-09-12T17:13:48;8.80;;;5.75;;
58864;SDS011;45702;52.982;6.658;2022-09-12T17:16:18;9.98;;;6.07;;
58864;SDS011;45702;52.982;6.658;2022-09-12T17:18:47;10.77;;;5.88;;
58864;SDS011;45702;52.982;6.658;2022-09-12T17:21:13;9.07;;;5.75;;
58864;SDS011;45702;52.982;6.658;2022-09-12T17:23:39;10.93;;;6.13;;
58864;SDS011;45702;52.982;6.658;2022-09-12T17:26:06;9.77;;;5.65;;
58864;SDS011;45702;52.982;6.658;2022-09-12T17:31:01;9.32;;;5.78;;
58864;SDS011;45702;52.982;6.658;2022-09-12T17:33:29;9.15;;;5.90;;
58864;SDS011;45702;52.982;6.658;2022-09-12T17:35:59;10.65;;;5.78;;
58864;SDS011;45702;52.982;6.658;2022-09-12T17:38:26;10.40;;;6.60;;
58864;SDS011;45702;52.982;6.658;2022-09-12T17:40:52;13.05;;;6.63;;
58864;SDS011;45702;52.982;6.658;2022-09-12T17:43:18;9.55;;;6.68;;
58864;SDS011;45702;52.982;6.658;2022-09-12T17:45:43;9.32;;;6.55;;
58864;SDS011;45702;52.982;6.658;2022-09-12T17:48:10;10.52;;;6.35;;
58864;SDS011;45702;52.982;6.658;2022-09-12T17:50:37;9.52;;;6.40;;
58864;SDS011;45702;52.982;6.658;2022-09-12T17:53:04;9.38;;;6.05;;
58864;SDS011;45702;52.982;6.658;2022-09-12T17:55:33;10.98;;;6.78;;
58864;SDS011;45702;52.982;6.658;2022-09-12T17:58:03;11.07;;;6.63;;
58864;SDS011;45702;52.982;6.658;2022-09-12T18:00:29;11.23;;;6.63;;
58864;SDS011;45702;52.982;6.658;2022-09-12T18:03:14;12.10;;;6.97;;